createdAt,value
2018-09-12T00:01:41.604Z,7.70
2018-09-12T00:04:11.146Z,4.30
2018-09-12T00:06:40.460Z,5.50
2018-09-12T00:09:11.373Z,5.30
2018-09-12T00:11:41.020Z,6.70
2018-09-12T00:14:11.371Z,5.30
2018-09-12T00:16:40.399Z,4.93
2018-09-12T00:19:09.563Z,4.03
2018-09-12T00:21:38.865Z,5.20
2018-09-12T00:24:08.063Z,6.63
2018-09-12T00:26:37.492Z,5.53
2018-09-12T00:29:06.736Z,4.77
2018-09-12T00:31:36.019Z,5.17
2018-09-12T00:34:05.304Z,3.30
2018-09-12T00:36:34.683Z,4.13
2018-09-12T00:39:04.822Z,4.53
2018-09-12T00:41:33.995Z,5.60
2018-09-12T00:44:03.156Z,9.00
2018-09-12T00:46:32.502Z,4.80
2018-09-12T00:49:01.711Z,4.67
2018-09-12T00:51:31.003Z,5.80
2018-09-12T00:54:00.257Z,7.63
2018-09-12T00:56:29.627Z,4.10
2018-09-12T00:58:59.142Z,5.23
2018-09-12T01:01:28.541Z,4.33
2018-09-12T01:03:57.858Z,4.37
2018-09-12T01:06:27.491Z,3.23
2018-09-12T01:08:56.842Z,3.50
2018-09-12T01:11:26.224Z,7.40
2018-09-12T01:13:56.330Z,5.53
2018-09-12T01:16:25.798Z,5.10
2018-09-12T01:18:55.059Z,4.87
2018-09-12T01:21:24.479Z,3.67
2018-09-12T01:23:53.848Z,4.13
2018-09-12T01:26:23.347Z,5.70
2018-09-12T01:28:52.683Z,4.23
2018-09-12T01:31:21.877Z,6.10
2018-09-12T01:33:51.498Z,4.60
2018-09-12T01:36:20.999Z,8.17
2018-09-12T01:38:50.151Z,4.27
2018-09-12T01:41:19.242Z,5.57
2018-09-12T01:43:48.680Z,6.40
2018-09-12T01:46:18.007Z,6.50
2018-09-12T01:48:47.993Z,6.80
2018-09-12T01:51:17.275Z,7.40
2018-09-12T01:53:46.854Z,7.57
2018-09-12T01:56:16.360Z,6.37
2018-09-12T01:58:45.838Z,8.17
2018-09-12T02:01:15.244Z,6.60
2018-09-12T02:03:44.871Z,8.70
2018-09-12T02:06:14.028Z,6.43
2018-09-12T02:08:43.502Z,6.97
2018-09-12T02:11:13.211Z,9.83
2018-09-12T02:13:42.650Z,7.90
2018-09-12T02:16:11.953Z,4.20
2018-09-12T02:18:41.471Z,5.83
2018-09-12T02:21:10.748Z,5.23
2018-09-12T02:23:40.161Z,4.40
2018-09-12T02:26:09.816Z,10.00
2018-09-12T02:28:39.102Z,4.63
2018-09-12T02:31:08.406Z,4.83
2018-09-12T02:33:37.654Z,4.30
2018-09-12T02:36:12.722Z,9.63
2018-09-12T02:38:42.222Z,3.87
2018-09-12T02:41:11.754Z,3.80
2018-09-12T02:43:41.347Z,5.70
2018-09-12T02:46:10.835Z,6.43
2018-09-12T02:48:40.623Z,5.50
2018-09-12T02:51:10.022Z,6.00
2018-09-12T02:53:39.455Z,10.70
2018-09-12T02:56:08.801Z,7.20
2018-09-12T02:58:38.243Z,6.63
2018-09-12T03:01:07.778Z,9.10
2018-09-12T03:03:37.185Z,6.57
2018-09-12T03:06:06.942Z,6.00
2018-09-12T03:08:36.326Z,9.93
2018-09-12T03:11:05.702Z,7.40
2018-09-12T03:13:34.999Z,12.60
2018-09-12T03:16:04.368Z,7.00
2018-09-12T03:18:33.457Z,6.23
2018-09-12T03:21:02.901Z,7.20
2018-09-12T03:23:32.039Z,7.50
2018-09-12T03:26:01.370Z,10.00
2018-09-12T03:28:30.817Z,8.90
2018-09-12T03:31:00.086Z,6.43
2018-09-12T03:33:29.466Z,6.00
2018-09-12T03:35:58.725Z,8.27
2018-09-12T03:38:27.944Z,6.87
2018-09-12T03:40:57.251Z,7.23
2018-09-12T03:43:27.379Z,8.70
2018-09-12T03:45:56.701Z,10.50
2018-09-12T03:48:26.246Z,6.67
2018-09-12T03:50:55.497Z,9.60
2018-09-12T03:53:24.780Z,6.43
2018-09-12T03:55:54.016Z,7.20
2018-09-12T03:58:23.511Z,9.30
2018-09-12T04:00:52.871Z,11.17
2018-09-12T04:03:22.109Z,10.63
2018-09-12T04:05:51.728Z,9.43
2018-09-12T04:08:21.220Z,9.90
2018-09-12T04:10:50.503Z,8.33
2018-09-12T04:13:19.879Z,13.37
2018-09-12T04:15:49.191Z,7.33
2018-09-12T04:18:18.539Z,10.40
2018-09-12T04:20:47.813Z,10.17
2018-09-12T04:23:17.306Z,8.20
2018-09-12T04:25:46.845Z,10.50
2018-09-12T04:28:16.430Z,8.00
2018-09-12T04:30:45.846Z,10.17
2018-09-12T04:33:15.261Z,8.90
2018-09-12T04:35:44.728Z,7.30
2018-09-12T04:38:14.128Z,6.67
2018-09-12T04:40:43.543Z,7.00
2018-09-12T04:43:12.936Z,9.13
2018-09-12T04:45:42.326Z,6.07
2018-09-12T04:48:11.900Z,6.27
2018-09-12T04:50:41.554Z,6.30
2018-09-12T04:53:11.075Z,8.00
2018-09-12T04:55:40.322Z,7.30
2018-09-12T04:58:09.674Z,7.50
2018-09-12T05:00:39.142Z,7.77
2018-09-12T05:03:08.537Z,9.13
2018-09-12T05:05:38.274Z,10.73
2018-09-12T05:08:07.630Z,5.87
2018-09-12T05:10:37.080Z,7.93
2018-09-12T05:13:06.584Z,6.50
2018-09-12T05:15:35.843Z,7.50
2018-09-12T05:18:05.354Z,15.23
2018-09-12T05:20:34.750Z,11.07
2018-09-12T05:23:04.329Z,10.10
2018-09-12T05:25:33.817Z,12.10
2018-09-12T05:28:03.622Z,6.47
2018-09-12T05:30:33.049Z,9.07
2018-09-12T05:33:02.380Z,7.50
2018-09-12T05:35:31.890Z,14.13
2018-09-12T05:38:01.881Z,10.57
2018-09-12T05:40:31.349Z,8.07
2018-09-12T05:43:00.820Z,8.40
2018-09-12T05:45:30.341Z,8.60
2018-09-12T05:47:59.624Z,7.93
2018-09-12T05:50:28.919Z,9.83
2018-09-12T05:52:58.194Z,6.20
2018-09-12T05:55:27.402Z,5.67
2018-09-12T05:57:56.872Z,8.00
2018-09-12T06:00:26.751Z,8.60
2018-09-12T06:02:56.069Z,7.80
2018-09-12T06:05:25.536Z,6.37
2018-09-12T06:07:55.113Z,6.10
2018-09-12T06:10:24.769Z,6.30
2018-09-12T06:12:54.114Z,7.27
2018-09-12T06:15:23.749Z,6.40
2018-09-12T06:17:53.184Z,8.40
2018-09-12T06:20:22.679Z,7.70
2018-09-12T06:22:52.032Z,9.53
2018-09-12T06:25:21.452Z,8.53
2018-09-12T06:27:50.770Z,7.60
2018-09-12T06:30:20.329Z,5.40
2018-09-12T06:32:50.009Z,13.83
2018-09-12T06:35:19.286Z,8.27
2018-09-12T06:37:48.717Z,7.80
2018-09-12T06:40:18.874Z,8.43
2018-09-12T06:42:48.932Z,6.13
2018-09-12T06:45:18.983Z,6.03
2018-09-12T06:47:48.172Z,7.33
2018-09-12T06:50:17.690Z,10.00
2018-09-12T06:52:47.098Z,5.60
2018-09-12T06:55:17.396Z,5.10
2018-09-12T06:57:46.808Z,8.10
2018-09-12T07:00:15.815Z,7.50
2018-09-12T07:02:45.013Z,6.77
2018-09-12T07:05:14.374Z,8.50
2018-09-12T07:07:43.871Z,6.53
2018-09-12T07:10:13.111Z,6.13
2018-09-12T07:12:42.453Z,8.70
2018-09-12T07:15:12.457Z,5.13
2018-09-12T07:17:42.315Z,11.53
2018-09-12T07:20:11.532Z,9.00
2018-09-12T07:22:40.724Z,6.57
2018-09-12T07:25:09.937Z,7.60
2018-09-12T07:27:39.110Z,6.97
2018-09-12T07:30:08.334Z,16.20
2018-09-12T07:32:37.633Z,5.80
2018-09-12T07:37:35.331Z,9.40
2018-09-12T07:40:05.101Z,8.17
2018-09-12T07:42:34.367Z,10.87
2018-09-12T07:45:03.878Z,7.13
2018-09-12T07:47:33.337Z,7.00
2018-09-12T07:50:02.930Z,6.60
2018-09-12T07:52:32.383Z,12.90
2018-09-12T07:55:01.768Z,7.37
2018-09-12T07:57:31.406Z,8.23
2018-09-12T08:00:00.540Z,8.67
2018-09-12T08:02:29.780Z,6.20
2018-09-12T08:04:58.929Z,9.17
2018-09-12T08:07:28.093Z,8.23
2018-09-12T08:09:57.631Z,6.73
2018-09-12T08:12:26.882Z,9.43
2018-09-12T08:14:57.656Z,5.77
2018-09-12T08:17:26.777Z,5.43
2018-09-12T08:19:55.951Z,6.80
2018-09-12T08:22:25.538Z,6.00
2018-09-12T08:24:54.662Z,5.87
2018-09-12T08:27:24.061Z,5.63
2018-09-12T08:29:53.300Z,5.80
2018-09-12T08:32:22.590Z,5.40
2018-09-12T08:34:51.875Z,9.17
2018-09-12T08:37:21.336Z,13.93
2018-09-12T08:39:50.492Z,7.77
2018-09-12T08:42:19.662Z,8.90
2018-09-12T08:44:49.151Z,7.27
2018-09-12T08:47:18.545Z,7.27
2018-09-12T08:49:47.740Z,8.03
2018-09-12T08:52:18.131Z,9.60
2018-09-12T08:54:47.355Z,7.30
2018-09-12T08:57:16.658Z,11.23
2018-09-12T08:59:45.898Z,7.87
2018-09-12T09:02:15.266Z,6.73
2018-09-12T09:04:44.581Z,8.73
2018-09-12T09:07:13.966Z,9.43
2018-09-12T09:09:43.357Z,11.70
2018-09-12T09:12:12.708Z,6.17
2018-09-12T09:14:42.033Z,7.73
2018-09-12T09:17:11.306Z,11.20
2018-09-12T09:19:40.952Z,6.37
2018-09-12T09:22:10.524Z,5.60
2018-09-12T09:24:40.095Z,6.53
2018-09-12T09:27:09.711Z,4.77
2018-09-12T09:29:39.476Z,6.27
2018-09-12T09:32:08.872Z,5.73
2018-09-12T09:34:38.647Z,6.77
2018-09-12T09:37:08.249Z,10.70
2018-09-12T09:39:37.740Z,5.50
2018-09-12T09:42:07.048Z,4.67
2018-09-12T09:44:36.692Z,9.57
2018-09-12T09:47:06.476Z,4.70
2018-09-12T09:49:36.003Z,5.03
2018-09-12T09:52:05.923Z,3.43
2018-09-12T09:54:35.323Z,6.00
2018-09-12T09:57:04.763Z,3.60
2018-09-12T09:59:34.242Z,4.60
2018-09-12T10:02:09.732Z,4.87
2018-09-12T10:04:44.486Z,4.20
2018-09-12T10:07:19.256Z,3.87
2018-09-12T10:09:49.099Z,6.43
2018-09-12T10:12:18.873Z,5.03
2018-09-12T10:14:48.244Z,4.43
2018-09-12T10:17:18.076Z,4.03
2018-09-12T10:19:48.034Z,10.37
2018-09-12T10:22:17.456Z,4.00
2018-09-12T10:24:46.723Z,4.43
2018-09-12T10:27:16.367Z,4.00
2018-09-12T10:29:45.615Z,3.77
2018-09-12T10:32:15.108Z,4.30
2018-09-12T10:34:44.992Z,6.70
2018-09-12T10:37:16.295Z,6.90
2018-09-12T10:39:45.784Z,4.97
2018-09-12T10:42:15.172Z,5.87
2018-09-12T10:44:44.621Z,7.20
2018-09-12T10:47:14.298Z,5.37
2018-09-12T10:49:44.245Z,5.20
2018-09-12T10:52:14.235Z,4.37
2018-09-12T10:54:44.250Z,16.93
2018-09-12T10:57:15.128Z,5.23
2018-09-12T10:59:44.494Z,5.03
2018-09-12T11:02:13.870Z,5.57
2018-09-12T11:04:43.372Z,4.33
2018-09-12T11:07:13.040Z,5.77
2018-09-12T11:09:42.317Z,5.00
2018-09-12T11:12:11.837Z,6.43
2018-09-12T11:14:41.143Z,6.50
2018-09-12T11:17:10.566Z,5.83
2018-09-12T11:19:39.851Z,8.77
2018-09-12T11:22:09.176Z,11.60
2018-09-12T11:24:38.498Z,5.30
2018-09-12T11:27:07.844Z,5.30
2018-09-12T11:29:37.406Z,8.20
2018-09-12T11:32:07.140Z,5.73
2018-09-12T11:34:36.412Z,7.33
2018-09-12T11:37:05.801Z,8.43
2018-09-12T11:39:35.396Z,9.73
2018-09-12T11:42:05.016Z,6.17
2018-09-12T11:44:37.651Z,6.70
2018-09-12T11:47:07.488Z,16.10
2018-09-12T11:49:36.688Z,5.77
2018-09-12T11:52:06.210Z,13.33
2018-09-12T11:54:35.414Z,9.33
2018-09-12T11:59:33.781Z,7.30
2018-09-12T12:02:03.022Z,7.43
2018-09-12T12:04:32.379Z,5.87
2018-09-12T12:07:02.259Z,6.17
2018-09-12T12:09:31.638Z,7.60
2018-09-12T12:12:00.898Z,8.30
2018-09-12T12:14:29.967Z,11.33
2018-09-12T12:16:59.059Z,9.20
2018-09-12T12:19:28.170Z,8.27
2018-09-12T12:21:57.353Z,9.83
2018-09-12T12:24:26.654Z,8.73
2018-09-12T12:26:55.836Z,9.87
2018-09-12T12:29:24.959Z,10.00
2018-09-12T12:31:54.050Z,11.50
2018-09-12T12:34:23.187Z,14.43
2018-09-12T12:36:52.245Z,16.33
2018-09-12T12:39:21.793Z,16.40
2018-09-12T12:41:50.819Z,11.20
2018-09-12T12:44:19.899Z,12.53
2018-09-12T12:46:49.047Z,13.07
2018-09-12T12:49:18.481Z,9.03
2018-09-12T12:51:47.606Z,13.53
2018-09-12T12:54:17.092Z,10.03
2018-09-12T12:56:46.319Z,16.47
2018-09-12T12:59:15.732Z,16.10
2018-09-12T13:01:44.889Z,16.70
2018-09-12T13:04:14.256Z,14.60
2018-09-12T13:06:43.415Z,7.37
2018-09-12T13:09:12.693Z,7.27
2018-09-12T13:11:42.094Z,8.90
2018-09-12T13:14:11.378Z,7.70
2018-09-12T13:16:40.759Z,9.27
2018-09-12T13:19:09.846Z,15.13
2018-09-12T13:21:39.247Z,11.80
2018-09-12T13:24:08.436Z,7.40
2018-09-12T13:26:37.707Z,9.03
2018-09-12T13:29:06.992Z,8.70
2018-09-12T13:31:36.194Z,6.23
2018-09-12T13:34:05.530Z,8.03
2018-09-12T13:36:34.799Z,12.23
2018-09-12T13:39:07.347Z,7.50
2018-09-12T13:41:36.472Z,6.90
2018-09-12T13:44:05.710Z,8.67
2018-09-12T13:46:34.869Z,5.53
2018-09-12T13:49:05.175Z,6.93
2018-09-12T13:51:34.440Z,5.97
2018-09-12T13:54:03.674Z,5.40
2018-09-12T13:56:33.711Z,6.83
2018-09-12T13:59:03.408Z,4.43
2018-09-12T14:01:32.965Z,12.63
2018-09-12T14:04:02.534Z,6.67
2018-09-12T14:06:31.789Z,9.43
2018-09-12T14:09:00.961Z,5.87
2018-09-12T14:11:30.893Z,8.07
2018-09-12T14:14:00.594Z,10.50
2018-09-12T14:16:30.015Z,5.90
2018-09-12T14:18:59.515Z,9.03
2018-09-12T14:21:28.875Z,10.00
2018-09-12T14:23:58.422Z,7.73
2018-09-12T14:26:28.100Z,8.60
2018-09-12T14:28:57.927Z,6.90
2018-09-12T14:31:27.433Z,5.33
2018-09-12T14:33:56.770Z,7.10
2018-09-12T14:36:26.340Z,8.90
2018-09-12T14:38:55.784Z,14.97
2018-09-12T14:41:24.957Z,11.40
2018-09-12T14:43:54.654Z,6.43
2018-09-12T14:46:23.895Z,8.00
2018-09-12T14:48:53.252Z,7.47
2018-09-12T14:51:22.491Z,8.67
2018-09-12T14:53:51.701Z,5.97
2018-09-12T14:56:20.874Z,5.70
2018-09-12T14:58:50.004Z,4.93
2018-09-12T15:01:19.403Z,4.20
2018-09-12T15:03:48.534Z,5.43
2018-09-12T15:06:17.725Z,6.17
2018-09-12T15:08:46.991Z,5.60
2018-09-12T15:11:16.254Z,13.63
2018-09-12T15:13:45.514Z,9.60
2018-09-12T15:16:15.001Z,15.53
2018-09-12T15:18:44.729Z,5.63
2018-09-12T15:21:13.833Z,5.70
2018-09-12T15:23:43.107Z,9.83
2018-09-12T15:26:12.339Z,8.03
2018-09-12T15:28:41.651Z,6.50
2018-09-12T15:31:10.822Z,4.47
2018-09-12T15:33:39.940Z,6.93
2018-09-12T15:36:09.318Z,4.87
2018-09-12T15:38:38.388Z,3.40
2018-09-12T15:41:07.602Z,5.40
2018-09-12T15:43:36.961Z,4.03
2018-09-12T15:46:06.468Z,5.70
2018-09-12T15:48:35.671Z,4.37
2018-09-12T15:51:04.943Z,4.43
2018-09-12T15:53:34.227Z,4.67
2018-09-12T15:56:03.748Z,5.73
2018-09-12T15:58:33.162Z,4.50
2018-09-12T16:01:02.542Z,8.03
2018-09-12T16:03:31.663Z,3.03
2018-09-12T16:06:00.944Z,4.07
2018-09-12T16:08:30.195Z,3.70
2018-09-12T16:10:59.416Z,2.97
2018-09-12T16:13:28.693Z,3.00
2018-09-12T16:15:58.160Z,3.90
2018-09-12T16:18:27.495Z,11.07
2018-09-12T16:20:56.691Z,6.90
2018-09-12T16:23:26.345Z,2.97
2018-09-12T16:25:55.518Z,3.43
2018-09-12T16:28:24.647Z,3.90
2018-09-12T16:30:53.830Z,4.00
2018-09-12T16:33:23.023Z,4.00
2018-09-12T16:35:52.213Z,2.93
2018-09-12T16:38:21.314Z,3.43
2018-09-12T16:40:50.567Z,4.20
2018-09-12T16:43:19.846Z,8.17
2018-09-12T16:45:49.337Z,3.60
2018-09-12T16:48:18.518Z,2.53
2018-09-12T16:50:47.651Z,2.57
2018-09-12T16:53:17.088Z,3.23
2018-09-12T16:55:46.287Z,3.40
2018-09-12T16:58:15.492Z,5.53
2018-09-12T17:00:44.750Z,4.23
2018-09-12T17:03:13.910Z,6.00
2018-09-12T17:05:43.527Z,6.97
2018-09-12T17:08:12.804Z,4.70
2018-09-12T17:10:42.319Z,4.70
2018-09-12T17:13:11.455Z,3.27
2018-09-12T17:15:40.605Z,5.00
2018-09-12T17:18:09.869Z,5.67
2018-09-12T17:20:38.954Z,4.13
2018-09-12T17:23:08.274Z,5.10
2018-09-12T17:25:37.466Z,5.30
2018-09-12T17:28:06.792Z,5.57
2018-09-12T17:30:35.878Z,5.70
2018-09-12T17:33:04.997Z,6.10
2018-09-12T17:35:34.055Z,4.87
2018-09-12T17:38:03.368Z,5.43
2018-09-12T17:40:32.575Z,7.53
2018-09-12T17:43:01.724Z,7.13
2018-09-12T17:45:30.949Z,5.30
2018-09-12T17:48:00.278Z,5.90
2018-09-12T17:50:29.704Z,6.60
2018-09-12T17:52:58.970Z,6.70
2018-09-12T17:55:28.168Z,7.03
2018-09-12T17:57:57.392Z,6.93
2018-09-12T18:00:26.902Z,8.60
2018-09-12T18:02:56.035Z,7.73
2018-09-12T18:05:25.174Z,7.33
2018-09-12T18:07:54.305Z,7.33
2018-09-12T18:10:23.478Z,13.73
2018-09-12T18:12:52.585Z,10.63
2018-09-12T18:15:21.844Z,15.67
2018-09-12T18:17:50.972Z,10.47
2018-09-12T18:20:20.781Z,10.23
2018-09-12T18:22:50.056Z,17.53
2018-09-12T18:25:19.224Z,10.80
2018-09-12T18:27:48.384Z,11.43
2018-09-12T18:30:18.020Z,9.60
2018-09-12T18:32:47.227Z,10.03
2018-09-12T18:35:16.401Z,11.67
2018-09-12T18:37:45.677Z,9.90
2018-09-12T18:40:15.197Z,11.37
2018-09-12T18:42:44.384Z,17.33
2018-09-12T18:45:13.600Z,13.33
2018-09-12T18:47:42.822Z,14.37
2018-09-12T18:50:12.256Z,14.70
2018-09-12T18:52:41.369Z,13.90
2018-09-12T18:55:10.540Z,10.77
2018-09-12T18:57:39.678Z,16.17
2018-09-12T19:00:08.866Z,13.90
2018-09-12T19:02:38.134Z,13.37
2018-09-12T19:05:07.730Z,12.30
2018-09-12T19:07:36.937Z,17.70
2018-09-12T19:10:06.130Z,16.57
2018-09-12T19:12:35.383Z,15.73
2018-09-12T19:15:04.775Z,13.80
2018-09-12T19:17:34.130Z,16.93
2018-09-12T19:20:03.646Z,12.23
2018-09-12T19:22:33.041Z,14.70
2018-09-12T19:25:02.109Z,19.57
2018-09-12T19:27:31.456Z,14.00
2018-09-12T19:30:00.663Z,14.90
2018-09-12T19:32:30.136Z,15.10
2018-09-12T19:34:59.284Z,15.13
2018-09-12T19:37:28.429Z,13.10
2018-09-12T19:39:57.835Z,16.27
2018-09-12T19:42:27.135Z,16.97
2018-09-12T19:44:56.358Z,17.23
2018-09-12T19:47:26.457Z,16.23
2018-09-12T19:49:55.742Z,16.37
2018-09-12T19:52:24.921Z,17.70
2018-09-12T19:54:54.126Z,15.50
2018-09-12T19:57:23.447Z,23.63
2018-09-12T19:59:52.770Z,19.33
2018-09-12T20:02:27.231Z,18.10
2018-09-12T20:04:57.490Z,19.70
2018-09-12T20:07:26.881Z,23.77
2018-09-12T20:09:56.139Z,19.10
2018-09-12T20:12:25.574Z,15.80
2018-09-12T20:14:54.780Z,24.05
2018-09-12T20:17:24.013Z,23.90
2018-09-12T20:19:53.366Z,17.10
2018-09-12T20:22:22.554Z,18.50
2018-09-12T20:24:52.726Z,17.27
2018-09-12T20:27:21.831Z,17.00
2018-09-12T20:29:50.938Z,20.45
2018-09-12T20:39:45.304Z,19.00
2018-09-12T20:42:14.688Z,20.10
2018-09-12T20:44:44.074Z,19.87
2018-09-12T20:47:13.507Z,16.70
2018-09-12T20:49:43.060Z,15.90
2018-09-12T20:52:12.455Z,20.40
2018-09-12T20:54:41.770Z,18.83
2018-09-12T20:57:11.208Z,19.20
2018-09-12T20:59:40.774Z,23.53
2018-09-12T21:02:10.079Z,21.00
2018-09-12T21:04:39.267Z,18.30
2018-09-12T21:07:08.468Z,18.27
2018-09-12T21:12:06.498Z,20.20
2018-09-12T21:14:35.841Z,17.40
2018-09-12T21:17:05.192Z,16.77
2018-09-12T21:19:34.531Z,20.87
2018-09-12T21:22:04.002Z,18.27
2018-09-12T21:24:33.362Z,17.57
2018-09-12T21:27:03.005Z,18.43
2018-09-12T21:29:32.355Z,20.10
2018-09-12T21:32:01.672Z,17.07
2018-09-12T21:34:31.246Z,20.20
2018-09-12T21:37:00.476Z,20.83
2018-09-12T21:39:29.671Z,19.30
2018-09-12T21:41:58.999Z,18.57
2018-09-12T21:44:28.400Z,17.90
2018-09-12T21:46:57.672Z,22.57
2018-09-12T21:49:27.407Z,17.17
2018-09-12T21:51:56.652Z,17.93
2018-09-12T21:54:25.861Z,21.07
2018-09-12T21:56:55.060Z,25.90
2018-09-12T21:59:24.326Z,20.90
2018-09-12T22:01:53.551Z,20.83
2018-09-12T22:04:22.890Z,25.67
2018-09-12T22:06:52.322Z,21.93
2018-09-12T22:09:21.727Z,56.70
2018-09-12T22:11:50.948Z,24.07
2018-09-12T22:14:20.238Z,23.73
2018-09-12T22:16:49.659Z,23.23
2018-09-12T22:21:47.948Z,23.75
2018-09-12T22:24:17.194Z,22.90
2018-09-12T22:26:46.403Z,20.95
2018-09-12T22:29:15.346Z,19.80
2018-09-12T22:31:44.507Z,19.70
2018-09-12T22:34:13.886Z,19.90
2018-09-12T22:36:43.297Z,21.50
2018-09-12T22:39:12.823Z,17.93
2018-09-12T22:41:42.066Z,14.95
2018-09-12T22:54:17.831Z,15.27
2018-09-12T22:56:46.995Z,16.33
2018-09-12T22:59:16.465Z,11.80
2018-09-12T23:01:45.838Z,12.73
2018-09-12T23:04:15.420Z,12.60
2018-09-12T23:06:44.790Z,12.53
2018-09-12T23:09:14.208Z,14.30
2018-09-12T23:11:43.502Z,17.70
2018-09-12T23:14:12.962Z,15.10
2018-09-12T23:16:42.319Z,12.47
2018-09-12T23:19:11.640Z,14.10
2018-09-12T23:21:41.109Z,11.70
2018-09-12T23:24:10.473Z,13.40
2018-09-12T23:26:39.926Z,14.13
2018-09-12T23:29:09.534Z,11.30
2018-09-12T23:31:38.841Z,11.20
2018-09-12T23:34:08.215Z,8.00
2018-09-12T23:36:37.499Z,9.83
2018-09-12T23:39:09.625Z,8.63
2018-09-12T23:41:38.788Z,13.87
2018-09-12T23:44:08.159Z,9.57
2018-09-12T23:46:37.196Z,9.67
2018-09-12T23:49:06.987Z,10.60
2018-09-12T23:51:36.046Z,8.63
2018-09-12T23:54:05.140Z,8.10
2018-09-12T23:56:34.194Z,7.83
2018-09-12T23:59:03.395Z,8.83
